Cortez, Florida
Current Conditions -  °F | °C
As of 6:53 PM on Friday 28 Nov 2014 (Local Time) from KSRQ Reporting Station
Clear Clear  
Wind Chill: 52°   Ceiling: Unl
Heat Index: 52°   Visibility: 10mi
Dew Point: 40°   Wind: 5mph
Humidity: 63%   Direction: 30°NNE
Pressure: 30.25"   Gusts: NA
Location:  27.47°N, 82.67°W
Report Text: KSRQ 282353Z 03004KT 10SM CLR 11/04 A3025 RMK AO2 SLP241 T01110044 10167 20111 53008
Loading
Personal Weather Stations






























Interactive Weather Map New forecast layout! Learn more

10-Day Weather Forecast

Advertisements
Track Severe Weather on mobile